createdAt,value
2022-08-11T00:00:16.632Z,22.80
2022-08-11T00:01:16.619Z,22.77
2022-08-11T00:02:16.615Z,22.72
2022-08-11T00:03:16.647Z,22.71
2022-08-11T00:04:16.544Z,22.71
2022-08-11T00:05:16.550Z,22.71
2022-08-11T00:06:16.571Z,22.72
2022-08-11T00:07:16.511Z,22.71
2022-08-11T00:08:16.514Z,22.68
2022-08-11T00:09:16.544Z,22.65
2022-08-11T00:10:16.507Z,22.62
2022-08-11T00:11:16.457Z,22.59
2022-08-11T00:12:16.479Z,22.56
2022-08-11T00:13:17.011Z,22.53
2022-08-11T00:14:16.430Z,22.50
2022-08-11T00:15:16.404Z,22.46
2022-08-11T00:16:16.392Z,22.44
2022-08-11T00:17:16.439Z,22.41
2022-08-11T00:18:16.401Z,22.41
2022-08-11T00:19:16.345Z,22.43
2022-08-11T00:20:17.443Z,22.41
2022-08-11T00:21:16.345Z,22.43
2022-08-11T00:22:16.327Z,22.41
2022-08-11T00:23:18.279Z,22.38
2022-08-11T00:24:16.291Z,22.35
2022-08-11T00:25:16.345Z,22.31
2022-08-11T00:26:16.313Z,22.31
2022-08-11T00:27:16.426Z,22.29
2022-08-11T00:28:16.241Z,22.29
2022-08-11T00:29:16.244Z,22.27
2022-08-11T00:30:16.326Z,22.27
2022-08-11T00:31:16.216Z,22.27
2022-08-11T00:32:16.185Z,22.23
2022-08-11T00:33:16.177Z,22.22
2022-08-11T00:34:16.125Z,22.20
2022-08-11T00:35:52.087Z,22.20
2022-08-11T00:36:20.874Z,22.20
2022-08-11T00:37:17.228Z,22.17
2022-08-11T00:38:16.085Z,22.16
2022-08-11T00:39:16.259Z,22.14
2022-08-11T00:40:16.076Z,22.13
2022-08-11T00:41:16.099Z,22.13
2022-08-11T00:42:16.037Z,22.07
2022-08-11T00:43:19.952Z,22.07
2022-08-11T00:44:16.035Z,22.02
2022-08-11T00:45:16.029Z,22.01
2022-08-11T00:46:15.986Z,22.02
2022-08-11T00:47:16.005Z,22.01
2022-08-11T00:48:15.946Z,22.02
2022-08-11T00:49:15.927Z,21.99
2022-08-11T00:50:16.396Z,22.01
2022-08-11T00:51:16.007Z,22.01
2022-08-11T00:52:15.883Z,22.01
2022-08-11T00:53:15.900Z,21.98
2022-08-11T00:54:15.951Z,21.98
2022-08-11T00:55:15.897Z,21.95
2022-08-11T00:56:15.899Z,21.94
2022-08-11T00:57:37.573Z,21.92
2022-08-11T00:58:21.821Z,21.91
2022-08-11T00:59:34.579Z,21.88
2022-08-11T01:00:16.879Z,21.85
2022-08-11T01:01:15.977Z,21.85
2022-08-11T01:02:15.861Z,21.85
2022-08-11T01:03:15.797Z,21.81
2022-08-11T01:04:15.827Z,21.75
2022-08-11T01:05:15.797Z,21.74
2022-08-11T01:06:15.688Z,21.69
2022-08-11T01:07:15.677Z,21.66
2022-08-11T01:08:16.724Z,21.59
2022-08-11T01:09:22.103Z,21.54
2022-08-11T01:10:16.697Z,21.46
2022-08-11T01:11:15.618Z,21.39
2022-08-11T01:12:15.642Z,21.34
2022-08-11T01:13:15.614Z,21.29
2022-08-11T01:14:15.581Z,21.26
2022-08-11T01:15:15.608Z,21.24
2022-08-11T01:16:15.596Z,21.24
2022-08-11T01:17:15.538Z,21.29
2022-08-11T01:18:15.547Z,21.38
2022-08-11T01:19:15.568Z,21.48
2022-08-11T01:20:48.023Z,21.56
2022-08-11T01:21:16.508Z,21.59
2022-08-11T01:22:15.480Z,21.59
2022-08-11T01:23:17.453Z,21.57
2022-08-11T01:24:15.489Z,21.56
2022-08-11T01:25:15.458Z,21.50
2022-08-11T01:26:15.483Z,21.44
2022-08-11T01:27:19.174Z,21.36
2022-08-11T01:28:15.393Z,21.35
2022-08-11T01:29:15.437Z,21.32
2022-08-11T01:30:15.476Z,21.27
2022-08-11T01:31:15.444Z,21.27
2022-08-11T01:32:15.381Z,21.24
2022-08-11T01:33:15.368Z,21.23
2022-08-11T01:34:15.339Z,21.21
2022-08-11T01:35:15.362Z,21.23
2022-08-11T01:36:15.361Z,21.23
2022-08-11T01:37:15.263Z,21.24
2022-08-11T01:38:15.291Z,21.19
2022-08-11T01:39:18.253Z,21.17
2022-08-11T01:40:15.270Z,21.16
2022-08-11T01:41:15.249Z,21.13
2022-08-11T01:42:15.283Z,21.13
2022-08-11T01:43:15.230Z,21.17
2022-08-11T01:44:15.213Z,21.20
2022-08-11T01:45:15.162Z,21.20
2022-08-11T01:46:15.329Z,21.20
2022-08-11T01:47:15.227Z,21.14
2022-08-11T01:48:15.170Z,21.14
2022-08-11T01:50:05.837Z,21.13
2022-08-11T01:50:16.133Z,21.13
2022-08-11T01:51:17.146Z,21.16
2022-08-11T01:52:15.181Z,21.16
2022-08-11T01:53:15.075Z,21.17
2022-08-11T01:54:15.080Z,21.17
2022-08-11T01:55:15.085Z,21.16
2022-08-11T01:56:15.031Z,21.14
2022-08-11T01:57:15.060Z,21.14
2022-08-11T01:58:15.024Z,21.16
2022-08-11T01:59:15.048Z,21.16
2022-08-11T02:00:14.964Z,21.17
2022-08-11T02:01:15.037Z,21.19
2022-08-11T02:02:21.447Z,21.19
2022-08-11T02:03:15.930Z,21.21
2022-08-11T02:04:14.924Z,21.23
2022-08-11T02:05:14.964Z,21.23
2022-08-11T02:06:14.901Z,21.23
2022-08-11T02:07:14.875Z,21.21
2022-08-11T02:08:14.910Z,21.20
2022-08-11T02:09:17.165Z,21.20
2022-08-11T02:10:14.895Z,21.17
2022-08-11T02:11:14.881Z,21.19
2022-08-11T02:12:14.804Z,21.19
2022-08-11T02:13:14.823Z,21.17
2022-08-11T02:14:14.892Z,21.16
2022-08-11T02:15:14.797Z,21.14
2022-08-11T02:16:14.767Z,21.13
2022-08-11T02:17:14.786Z,21.14
2022-08-11T02:18:14.764Z,21.14
2022-08-11T02:19:14.704Z,21.14
2022-08-11T02:20:14.703Z,21.13
2022-08-11T02:21:14.774Z,21.09
2022-08-11T02:22:14.763Z,21.06
2022-08-11T02:23:14.685Z,21.05
2022-08-11T02:24:15.683Z,21.05
2022-08-11T02:25:17.110Z,21.05
2022-08-11T02:26:14.630Z,21.06
2022-08-11T02:27:14.623Z,21.06
2022-08-11T02:28:14.696Z,21.05
2022-08-11T02:29:14.664Z,21.02
2022-08-11T02:30:14.574Z,21.01
2022-08-11T02:31:22.539Z,20.99
2022-08-11T02:32:28.606Z,21.01
2022-08-11T02:33:15.514Z,20.98
2022-08-11T02:34:14.521Z,20.96
2022-08-11T02:35:14.525Z,20.95
2022-08-11T02:36:14.494Z,20.89
2022-08-11T02:37:14.523Z,20.80
2022-08-11T02:38:15.490Z,20.68
2022-08-11T02:39:14.506Z,20.61
2022-08-11T02:40:14.437Z,20.50
2022-08-11T02:41:14.444Z,20.39
2022-08-11T02:42:32.929Z,20.30
2022-08-11T02:43:15.413Z,20.25
2022-08-11T02:44:14.425Z,20.16
2022-08-11T02:45:14.370Z,20.09
2022-08-11T02:46:18.123Z,20.03
2022-08-11T02:47:14.435Z,19.97
2022-08-11T02:48:14.354Z,19.94
2022-08-11T02:49:14.367Z,19.90
2022-08-11T02:50:14.284Z,19.87
2022-08-11T02:51:14.282Z,19.83
2022-08-11T02:52:15.305Z,19.78
2022-08-11T02:53:14.267Z,19.75
2022-08-11T02:54:14.244Z,19.70
2022-08-11T02:55:50.972Z,19.70
2022-08-11T02:56:15.223Z,19.69
2022-08-11T02:57:14.237Z,19.66
2022-08-11T02:58:14.318Z,19.65
2022-08-11T02:59:14.185Z,19.63
2022-08-11T03:00:14.156Z,19.60
2022-08-11T03:01:14.258Z,19.60
2022-08-11T03:02:14.167Z,19.58
2022-08-11T03:03:14.117Z,19.57
2022-08-11T03:04:14.115Z,19.55
2022-08-11T03:05:14.085Z,19.54
2022-08-11T03:06:14.099Z,19.53
2022-08-11T03:07:28.912Z,19.48
2022-08-11T03:08:15.056Z,19.48
2022-08-11T03:09:14.036Z,19.48
2022-08-11T03:10:14.053Z,19.46
2022-08-11T03:11:14.074Z,19.43
2022-08-11T03:12:13.984Z,19.39
2022-08-11T03:13:15.525Z,19.39
2022-08-11T03:14:14.018Z,19.39
2022-08-11T03:15:13.957Z,19.36
2022-08-11T03:16:13.946Z,19.35
2022-08-11T03:17:13.925Z,19.33
2022-08-11T03:18:13.896Z,19.33
2022-08-11T03:19:13.897Z,19.31
2022-08-11T03:20:13.876Z,19.28
2022-08-11T03:21:13.906Z,19.25
2022-08-11T03:22:14.457Z,19.21
2022-08-11T03:23:19.433Z,19.18
2022-08-11T03:24:14.843Z,19.18
2022-08-11T03:25:13.828Z,19.15
2022-08-11T03:26:13.846Z,19.17
2022-08-11T03:27:13.808Z,19.17
2022-08-11T03:28:13.844Z,19.17
2022-08-11T03:29:18.197Z,19.18
2022-08-11T03:30:13.747Z,19.17
2022-08-11T03:31:13.762Z,19.18
2022-08-11T03:32:13.753Z,19.18
2022-08-11T03:33:13.678Z,19.18
2022-08-11T03:34:13.685Z,19.17
2022-08-11T03:35:20.055Z,19.17
2022-08-11T03:36:14.659Z,19.15
2022-08-11T03:37:16.571Z,19.17
2022-08-11T03:38:13.667Z,19.15
2022-08-11T03:39:13.594Z,19.14
2022-08-11T03:40:13.622Z,19.15
2022-08-11T03:41:49.369Z,19.14
2022-08-11T03:42:14.555Z,19.14
2022-08-11T03:43:13.546Z,19.13
2022-08-11T03:44:13.550Z,19.11
2022-08-11T03:45:13.578Z,19.10
2022-08-11T03:46:13.519Z,19.08
2022-08-11T03:47:13.481Z,19.05
2022-08-11T03:48:13.517Z,19.01
2022-08-11T03:49:13.481Z,19.01
2022-08-11T03:50:13.484Z,18.99
2022-08-11T03:51:13.447Z,18.99
2022-08-11T03:52:13.428Z,18.99
2022-08-11T03:53:13.491Z,19.01
2022-08-11T03:54:13.417Z,18.99
2022-08-11T03:55:13.395Z,18.99
2022-08-11T03:56:13.359Z,18.99
2022-08-11T03:57:13.338Z,19.01
2022-08-11T03:58:13.388Z,18.99
2022-08-11T03:59:13.342Z,18.99
2022-08-11T04:00:13.324Z,18.99
2022-08-11T04:01:13.315Z,18.99
2022-08-11T04:02:13.288Z,18.99
2022-08-11T04:03:13.248Z,18.98
2022-08-11T04:04:13.300Z,18.98
2022-08-11T04:05:13.272Z,18.97
2022-08-11T04:06:13.260Z,18.97
2022-08-11T04:07:17.516Z,18.94
2022-08-11T04:08:13.240Z,18.94
2022-08-11T04:09:13.407Z,18.94
2022-08-11T04:10:13.305Z,18.94
2022-08-11T04:11:13.188Z,18.95
2022-08-11T04:12:14.760Z,18.94
2022-08-11T04:13:14.211Z,18.95
2022-08-11T04:14:13.136Z,18.95
2022-08-11T04:15:13.118Z,18.94
2022-08-11T04:16:13.091Z,18.94
2022-08-11T04:17:13.099Z,18.92
2022-08-11T04:18:13.080Z,18.91
2022-08-11T04:19:13.066Z,18.87
2022-08-11T04:20:13.038Z,18.90
2022-08-11T04:21:13.049Z,18.90
2022-08-11T04:22:13.016Z,18.86
2022-08-11T04:23:12.979Z,18.86
2022-08-11T04:24:38.120Z,18.83
2022-08-11T04:25:13.962Z,18.83
2022-08-11T04:26:16.092Z,18.83
2022-08-11T04:27:14.342Z,18.84
2022-08-11T04:28:28.482Z,18.86
2022-08-11T04:29:13.921Z,18.87
2022-08-11T04:30:12.899Z,18.90
2022-08-11T04:31:12.864Z,18.90
2022-08-11T04:32:13.901Z,18.90
2022-08-11T04:33:12.896Z,18.92
2022-08-11T04:34:12.849Z,18.91
2022-08-11T04:35:12.814Z,18.92
2022-08-11T04:36:12.810Z,18.94
2022-08-11T04:37:12.806Z,18.94
2022-08-11T04:38:12.805Z,18.97
2022-08-11T04:39:12.839Z,19.10
2022-08-11T04:40:12.749Z,19.46
2022-08-11T04:41:12.823Z,19.86
2022-08-11T04:42:12.739Z,20.16
2022-08-11T04:43:12.721Z,20.49
2022-08-11T04:44:12.700Z,20.76
2022-08-11T04:45:12.691Z,20.86
2022-08-11T04:46:12.687Z,20.77
2022-08-11T04:47:12.702Z,20.64
2022-08-11T04:48:12.660Z,20.77
2022-08-11T04:49:12.650Z,21.14
2022-08-11T04:50:13.624Z,21.46
2022-08-11T04:51:17.499Z,21.76
2022-08-11T04:52:13.574Z,22.07
2022-08-11T04:53:12.561Z,22.35
2022-08-11T04:54:12.611Z,22.60
2022-08-11T04:55:12.613Z,22.89
2022-08-11T04:56:12.530Z,23.11
2022-08-11T04:57:12.552Z,23.24
2022-08-11T04:58:12.558Z,23.29
2022-08-11T04:59:12.525Z,23.45
2022-08-11T05:00:12.470Z,23.65
2022-08-11T05:01:12.567Z,23.64
2022-08-11T05:02:17.047Z,23.64
2022-08-11T05:03:13.459Z,23.70
2022-08-11T05:04:12.423Z,23.75
2022-08-11T05:05:12.433Z,23.62
2022-08-11T05:06:12.453Z,23.83
2022-08-11T05:07:12.401Z,24.08
2022-08-11T05:08:12.388Z,24.27
2022-08-11T05:09:12.355Z,24.56
2022-08-11T05:10:12.381Z,24.79
2022-08-11T05:11:12.353Z,24.87
2022-08-11T05:12:12.316Z,25.01
2022-08-11T05:13:12.304Z,25.20
2022-08-11T05:14:12.282Z,25.27
2022-08-11T05:15:12.275Z,25.44
2022-08-11T05:16:12.259Z,25.57
2022-08-11T05:17:12.273Z,25.64
2022-08-11T05:18:12.234Z,25.83
2022-08-11T05:19:12.306Z,25.91
2022-08-11T05:20:12.214Z,25.77
2022-08-11T05:21:12.235Z,25.80
2022-08-11T05:22:12.651Z,25.93
2022-08-11T05:23:12.224Z,26.09
2022-08-11T05:24:12.168Z,26.15
2022-08-11T05:25:12.239Z,26.24
2022-08-11T05:26:48.055Z,26.36
2022-08-11T05:27:14.072Z,26.47
2022-08-11T05:28:12.122Z,26.36
2022-08-11T05:29:20.646Z,26.50
2022-08-11T05:30:13.087Z,26.72
2022-08-11T05:31:12.111Z,26.91
2022-08-11T05:32:12.057Z,26.96
2022-08-11T05:33:12.066Z,26.79
2022-08-11T05:34:12.152Z,26.74
2022-08-11T05:35:15.836Z,26.81
2022-08-11T05:36:13.008Z,26.95
2022-08-11T05:37:26.120Z,27.17
2022-08-11T05:38:12.979Z,27.46
2022-08-11T05:39:11.995Z,27.71
2022-08-11T05:40:12.006Z,27.92
2022-08-11T05:41:11.948Z,27.91
2022-08-11T05:42:11.946Z,28.07
2022-08-11T05:43:12.916Z,28.28
2022-08-11T05:44:19.817Z,28.53
2022-08-11T05:45:15.465Z,28.77
2022-08-11T05:46:13.294Z,28.88
2022-08-11T05:47:11.855Z,29.01
2022-08-11T05:48:11.880Z,29.11
2022-08-11T05:49:11.829Z,28.95
2022-08-11T05:50:13.780Z,28.28
2022-08-11T05:51:11.975Z,27.10
2022-08-11T05:52:12.853Z,26.11
2022-08-11T05:53:24.041Z,25.72
2022-08-11T05:54:29.244Z,25.62
2022-08-11T05:55:12.838Z,25.42
2022-08-11T05:56:11.752Z,24.79
2022-08-11T05:57:49.044Z,24.37
2022-08-11T05:58:12.740Z,24.27
2022-08-11T05:59:12.083Z,24.24
2022-08-11T06:00:11.814Z,24.26
2022-08-11T06:01:11.886Z,24.39
2022-08-11T06:02:11.673Z,24.38
2022-08-11T06:03:11.687Z,24.22
2022-08-11T06:04:11.676Z,24.22
2022-08-11T06:05:11.819Z,24.42
2022-08-11T06:06:11.625Z,24.53
2022-08-11T06:07:11.613Z,24.56
2022-08-11T06:08:11.614Z,24.53
2022-08-11T06:09:11.632Z,24.56
2022-08-11T06:10:11.581Z,24.87
2022-08-11T06:11:11.584Z,25.19
2022-08-11T06:12:11.574Z,24.83
2022-08-11T06:13:11.544Z,24.77
2022-08-11T06:14:11.527Z,24.90
2022-08-11T06:15:11.561Z,25.24
2022-08-11T06:16:11.536Z,25.07
2022-08-11T06:17:11.529Z,25.16
2022-08-11T06:18:11.476Z,25.50
2022-08-11T06:19:11.529Z,25.43
2022-08-11T06:20:11.556Z,25.49
2022-08-11T06:21:11.525Z,26.01
2022-08-11T06:22:11.451Z,26.47
2022-08-11T06:23:11.443Z,26.76
2022-08-11T06:24:11.478Z,26.57
2022-08-11T06:25:11.423Z,26.58
2022-08-11T06:26:11.512Z,26.92
2022-08-11T06:27:13.146Z,26.81
2022-08-11T06:28:11.383Z,26.73
2022-08-11T06:29:11.402Z,26.80
2022-08-11T06:30:11.539Z,27.13
2022-08-11T06:31:11.364Z,27.66
2022-08-11T06:32:11.387Z,28.03
2022-08-11T06:33:11.311Z,28.35
2022-08-11T06:34:11.295Z,28.35
2022-08-11T06:35:11.312Z,28.46
2022-08-11T06:36:11.309Z,28.65
2022-08-11T06:37:11.297Z,28.75
2022-08-11T06:38:11.254Z,28.46
2022-08-11T06:39:11.347Z,27.73
2022-08-11T06:40:11.229Z,27.21
2022-08-11T06:41:11.227Z,27.16
2022-08-11T06:42:11.282Z,27.39
2022-08-11T06:43:11.204Z,27.61
2022-08-11T06:44:11.204Z,27.69
2022-08-11T06:45:11.195Z,27.86
2022-08-11T06:46:11.230Z,28.38
2022-08-11T06:47:12.192Z,28.88
2022-08-11T06:48:11.170Z,28.91
2022-08-11T06:49:11.191Z,28.35
2022-08-11T06:50:11.184Z,27.57
2022-08-11T06:51:11.114Z,26.46
2022-08-11T06:52:34.137Z,25.64
2022-08-11T06:53:12.177Z,25.13
2022-08-11T06:54:11.091Z,24.67
2022-08-11T06:55:55.458Z,24.32
2022-08-11T06:56:12.052Z,24.13
2022-08-11T06:57:29.796Z,24.07
2022-08-11T06:58:12.143Z,23.98
2022-08-11T06:59:11.086Z,23.79
2022-08-11T07:00:10.991Z,23.64
2022-08-11T07:01:11.041Z,23.60
2022-08-11T07:02:10.983Z,23.62
2022-08-11T07:03:10.993Z,23.70
2022-08-11T07:04:11.009Z,23.77
2022-08-11T07:05:10.932Z,23.80
2022-08-11T07:06:10.919Z,23.89
2022-08-11T07:07:10.886Z,23.95
2022-08-11T07:08:33.713Z,23.95
2022-08-11T07:09:11.907Z,23.94
2022-08-11T07:10:10.873Z,23.89
2022-08-11T07:11:10.890Z,23.97
2022-08-11T07:12:10.834Z,24.01
2022-08-11T07:13:10.831Z,23.76
2022-08-11T07:14:11.929Z,23.68
2022-08-11T07:15:10.814Z,23.58
2022-08-11T07:16:14.061Z,23.52
2022-08-11T07:17:10.786Z,23.53
2022-08-11T07:18:10.753Z,23.46
2022-08-11T07:19:10.760Z,23.34
2022-08-11T07:20:11.740Z,23.27
2022-08-11T07:22:00.378Z,23.29
2022-08-11T07:22:11.791Z,23.43
2022-08-11T07:23:10.794Z,23.50
2022-08-11T07:24:10.690Z,23.57
2022-08-11T07:25:10.676Z,23.58
2022-08-11T07:26:10.707Z,23.55
2022-08-11T07:27:10.661Z,23.58
2022-08-11T07:28:10.623Z,23.62
2022-08-11T07:29:10.596Z,23.75
2022-08-11T07:30:10.599Z,23.92
2022-08-11T07:31:10.620Z,24.00
2022-08-11T07:32:10.564Z,23.83
2022-08-11T07:33:10.573Z,23.83
2022-08-11T07:34:15.928Z,23.85
2022-08-11T07:35:11.576Z,23.85
2022-08-11T07:36:10.555Z,23.86
2022-08-11T07:37:10.508Z,23.90
2022-08-11T07:38:10.466Z,24.01
2022-08-11T07:39:10.595Z,24.14
2022-08-11T07:40:10.498Z,24.22
2022-08-11T07:41:10.599Z,24.20
2022-08-11T07:42:10.451Z,24.29
2022-08-11T07:43:10.447Z,24.38
2022-08-11T07:44:10.420Z,24.38
2022-08-11T07:45:10.428Z,24.35
2022-08-11T07:46:10.408Z,24.29
2022-08-11T07:47:10.424Z,24.32
2022-08-11T07:48:10.440Z,24.29
2022-08-11T07:49:10.359Z,24.34
2022-08-11T07:50:10.345Z,24.38
2022-08-11T07:51:10.400Z,24.47
2022-08-11T07:52:10.278Z,24.45
2022-08-11T07:53:10.338Z,24.54
2022-08-11T07:54:16.937Z,24.67
2022-08-11T07:55:11.260Z,24.79
2022-08-11T07:56:10.246Z,24.79
2022-08-11T07:57:45.047Z,24.80
2022-08-11T07:58:16.250Z,24.82
2022-08-11T07:59:11.237Z,24.76
2022-08-11T08:00:10.341Z,24.82
2022-08-11T08:01:16.086Z,24.90
2022-08-11T08:02:11.219Z,25.01
2022-08-11T08:03:10.183Z,24.87
2022-08-11T08:04:10.196Z,24.79
2022-08-11T08:05:10.118Z,24.79
2022-08-11T08:06:22.219Z,24.95
2022-08-11T08:07:11.119Z,24.97
2022-08-11T08:08:10.070Z,25.02
2022-08-11T08:09:10.190Z,25.09
2022-08-11T08:10:10.051Z,25.10
2022-08-11T08:11:10.046Z,25.17
2022-08-11T08:12:10.021Z,25.09
2022-08-11T08:13:10.059Z,25.05
2022-08-11T08:14:09.993Z,25.01
2022-08-11T08:15:10.056Z,25.02
2022-08-11T08:16:09.991Z,25.13
2022-08-11T08:17:09.992Z,25.19
2022-08-11T08:18:26.259Z,25.10
2022-08-11T08:19:10.982Z,25.17
2022-08-11T08:20:09.943Z,25.20
2022-08-11T08:21:09.959Z,25.30
2022-08-11T08:22:37.433Z,25.52
2022-08-11T08:23:10.898Z,25.64
2022-08-11T08:24:09.878Z,25.64
2022-08-11T08:25:09.846Z,25.52
2022-08-11T08:26:13.599Z,25.37
2022-08-11T08:27:10.907Z,25.47
2022-08-11T08:28:09.896Z,25.57
2022-08-11T08:29:09.792Z,25.57
2022-08-11T08:30:09.773Z,25.50
2022-08-11T08:31:09.786Z,25.47
2022-08-11T08:32:09.819Z,25.52
2022-08-11T08:33:09.753Z,25.57
2022-08-11T08:34:09.742Z,25.65
2022-08-11T08:35:09.736Z,25.59
2022-08-11T08:36:09.710Z,25.43
2022-08-11T08:37:15.766Z,25.43
2022-08-11T08:38:10.672Z,25.46
2022-08-11T08:39:09.876Z,25.56
2022-08-11T08:40:09.747Z,25.61
2022-08-11T08:41:09.644Z,25.65
2022-08-11T08:42:10.669Z,25.72
2022-08-11T08:43:09.617Z,25.67
2022-08-11T08:44:35.194Z,25.71
2022-08-11T08:45:10.648Z,25.83
2022-08-11T08:46:09.566Z,25.87
2022-08-11T08:47:09.566Z,25.84
2022-08-11T08:48:09.559Z,25.90
2022-08-11T08:49:09.574Z,25.98
2022-08-11T08:50:09.499Z,26.18
2022-08-11T08:51:11.024Z,26.28
2022-08-11T08:52:26.285Z,26.21
2022-08-11T08:53:10.528Z,26.20
2022-08-11T08:54:09.470Z,26.24
2022-08-11T08:55:09.473Z,26.27
2022-08-11T08:56:09.508Z,26.36
2022-08-11T08:57:09.558Z,26.39
2022-08-11T08:58:09.452Z,26.22
2022-08-11T08:59:09.460Z,26.17
2022-08-11T09:00:12.449Z,26.24
2022-08-11T09:01:10.491Z,26.24
2022-08-11T09:02:09.358Z,26.18
2022-08-11T09:03:36.452Z,26.09
2022-08-11T09:04:12.368Z,26.01
2022-08-11T09:05:09.324Z,25.94
2022-08-11T09:06:09.321Z,26.17
2022-08-11T09:07:09.280Z,26.29
2022-08-11T09:08:09.313Z,26.39
2022-08-11T09:09:09.256Z,26.43
2022-08-11T09:10:09.347Z,26.49
2022-08-11T09:11:13.450Z,26.46
2022-08-11T09:12:09.221Z,26.37
2022-08-11T09:13:09.338Z,26.35
2022-08-11T09:14:12.981Z,26.32
2022-08-11T09:15:10.596Z,26.37
2022-08-11T09:16:09.215Z,26.54
2022-08-11T09:17:09.161Z,26.44
2022-08-11T09:18:09.156Z,26.40
2022-08-11T09:19:09.799Z,26.55
2022-08-11T09:20:09.255Z,26.62
2022-08-11T09:21:09.099Z,26.67
2022-08-11T09:22:09.107Z,26.76
2022-08-11T09:24:19.141Z,27.02
2022-08-11T09:25:10.044Z,26.96
2022-08-11T09:26:09.066Z,27.01
2022-08-11T09:27:09.071Z,27.04
2022-08-11T09:28:09.096Z,27.04
2022-08-11T09:29:08.982Z,27.10
2022-08-11T09:30:09.008Z,27.11
2022-08-11T09:31:08.991Z,27.19
2022-08-11T09:32:08.998Z,27.39
2022-08-11T09:33:08.923Z,27.36
2022-08-11T09:34:08.913Z,27.28
2022-08-11T09:35:08.919Z,27.29
2022-08-11T09:36:08.963Z,27.31
2022-08-11T09:37:08.882Z,27.29
2022-08-11T09:38:08.864Z,27.31
2022-08-11T09:39:08.940Z,27.50
2022-08-11T09:40:08.861Z,27.59
2022-08-11T09:41:08.835Z,27.57
2022-08-11T09:42:11.339Z,27.35
2022-08-11T09:43:09.802Z,27.39
2022-08-11T09:44:08.783Z,27.31
2022-08-11T09:45:08.763Z,27.24
2022-08-11T09:46:08.762Z,27.32
2022-08-11T09:47:08.725Z,27.38
2022-08-11T09:48:08.715Z,27.38
2022-08-11T09:49:08.698Z,27.38
2022-08-11T09:50:08.693Z,27.36
2022-08-11T09:51:08.723Z,27.41
2022-08-11T09:52:08.709Z,27.58
2022-08-11T09:53:35.754Z,27.69
2022-08-11T09:54:09.705Z,27.76
2022-08-11T09:55:08.626Z,27.82
2022-08-11T09:56:08.650Z,27.67
2022-08-11T09:57:08.592Z,27.64
2022-08-11T09:58:08.605Z,27.48
2022-08-11T09:59:08.566Z,27.43
2022-08-11T10:00:11.423Z,27.36
2022-08-11T10:01:08.598Z,27.42
2022-08-11T10:02:08.683Z,27.50
2022-08-11T10:03:08.539Z,27.57
2022-08-11T10:04:08.501Z,27.76
2022-08-11T10:05:08.486Z,27.89
2022-08-11T10:06:08.522Z,27.92
2022-08-11T10:07:08.488Z,27.76
2022-08-11T10:08:08.533Z,27.80
2022-08-11T10:09:08.438Z,27.74
2022-08-11T10:10:08.436Z,27.79
2022-08-11T10:11:08.418Z,27.89
2022-08-11T10:12:08.414Z,27.99
2022-08-11T10:14:10.085Z,27.92
2022-08-11T10:14:33.922Z,27.85
2022-08-11T10:15:09.351Z,27.84
2022-08-11T10:16:15.305Z,27.92
2022-08-11T10:17:09.459Z,28.16
2022-08-11T10:18:08.330Z,28.04
2022-08-11T10:19:08.317Z,27.96
2022-08-11T10:20:08.292Z,27.98
2022-08-11T10:21:08.335Z,28.03
2022-08-11T10:22:08.277Z,28.14
2022-08-11T10:23:08.285Z,28.07
2022-08-11T10:24:08.246Z,27.95
2022-08-11T10:25:08.224Z,27.82
2022-08-11T10:26:08.253Z,27.79
2022-08-11T10:27:08.321Z,27.88
2022-08-11T10:28:32.776Z,27.98
2022-08-11T10:29:13.572Z,28.10
2022-08-11T10:30:08.159Z,28.07
2022-08-11T10:31:12.658Z,28.07
2022-08-11T10:32:09.147Z,28.21
2022-08-11T10:33:08.898Z,28.26
2022-08-11T10:34:08.135Z,28.31
2022-08-11T10:35:08.146Z,28.26
2022-08-11T10:36:16.070Z,28.19
2022-08-11T10:37:09.056Z,28.25
2022-08-11T10:38:10.085Z,28.38
2022-08-11T10:39:08.118Z,28.31
2022-08-11T10:40:08.030Z,28.26
2022-08-11T10:41:08.091Z,28.26
2022-08-11T10:42:10.798Z,28.17
2022-08-11T10:43:09.010Z,28.14
2022-08-11T10:44:07.979Z,28.16
2022-08-11T10:45:08.280Z,28.01
2022-08-11T10:46:07.980Z,28.35
2022-08-11T10:47:07.998Z,28.35
2022-08-11T10:48:10.937Z,28.31
2022-08-11T10:49:08.891Z,28.31
2022-08-11T10:50:07.940Z,28.03
2022-08-11T10:51:07.880Z,27.98
2022-08-11T10:52:07.925Z,27.98
2022-08-11T10:53:07.952Z,27.94
2022-08-11T10:54:11.476Z,27.99
2022-08-11T10:55:08.833Z,27.99
2022-08-11T10:56:07.864Z,28.07
2022-08-11T10:57:08.042Z,28.03
2022-08-11T10:58:07.812Z,28.11
2022-08-11T10:59:07.865Z,28.11
2022-08-11T11:00:07.850Z,28.03
2022-08-11T11:01:07.811Z,27.99
2022-08-11T11:02:07.824Z,28.11
2022-08-11T11:03:22.399Z,28.31
2022-08-11T11:04:08.792Z,28.32
2022-08-11T11:05:07.767Z,28.28
2022-08-11T11:06:27.423Z,28.23
2022-08-11T11:07:08.665Z,28.22
2022-08-11T11:08:07.749Z,28.25
2022-08-11T11:09:07.654Z,28.35
2022-08-11T11:10:07.665Z,28.47
2022-08-11T11:11:07.645Z,28.58
2022-08-11T11:12:07.616Z,28.69
2022-08-11T11:13:07.660Z,28.66
2022-08-11T11:14:07.628Z,28.54
2022-08-11T11:15:08.417Z,28.46
2022-08-11T11:16:08.576Z,28.53
2022-08-11T11:17:07.548Z,28.68
2022-08-11T11:18:07.536Z,28.54
2022-08-11T11:19:07.516Z,28.47
2022-08-11T11:20:07.529Z,28.48
2022-08-11T11:21:07.531Z,28.69
2022-08-11T11:22:07.499Z,28.84
2022-08-11T11:23:07.638Z,28.82
2022-08-11T11:24:07.436Z,28.72
2022-08-11T11:25:07.510Z,28.66
2022-08-11T11:26:07.489Z,28.63
2022-08-11T11:27:07.386Z,28.53
2022-08-11T11:28:07.391Z,28.53
2022-08-11T11:29:07.404Z,28.53
2022-08-11T11:30:07.398Z,28.58
2022-08-11T11:31:07.349Z,28.47
2022-08-11T11:32:07.451Z,28.43
2022-08-11T11:33:07.338Z,28.47
2022-08-11T11:34:12.579Z,28.54
2022-08-11T11:35:08.289Z,28.72
2022-08-11T11:36:07.350Z,28.97
2022-08-11T11:37:07.268Z,28.97
2022-08-11T11:38:10.488Z,28.72
2022-08-11T11:39:08.346Z,28.58
2022-08-11T11:40:07.238Z,28.53
2022-08-11T11:41:07.230Z,28.53
2022-08-11T11:42:07.201Z,28.62
2022-08-11T11:43:07.197Z,28.63
2022-08-11T11:44:07.178Z,28.65
2022-08-11T11:45:07.170Z,28.63
2022-08-11T11:46:07.139Z,28.82
2022-08-11T11:47:07.163Z,28.95
2022-08-11T11:48:07.130Z,29.08
2022-08-11T11:49:07.178Z,29.33
2022-08-11T11:50:08.171Z,29.44
2022-08-11T11:51:07.081Z,29.07
2022-08-11T11:52:07.093Z,28.87
2022-08-11T11:53:07.082Z,28.66
2022-08-11T11:54:07.031Z,28.59
2022-08-11T11:55:07.203Z,28.56
2022-08-11T11:56:07.011Z,28.60
2022-08-11T11:57:07.000Z,28.63
2022-08-11T11:58:07.001Z,28.60
2022-08-11T11:59:06.981Z,28.68
2022-08-11T12:00:06.960Z,28.81
2022-08-11T12:01:06.941Z,28.87
2022-08-11T12:02:11.648Z,28.88
2022-08-11T12:03:08.034Z,28.95
2022-08-11T12:04:06.911Z,29.01
2022-08-11T12:05:06.902Z,29.08
2022-08-11T12:06:06.896Z,29.37
2022-08-11T12:07:06.855Z,29.38
2022-08-11T12:08:13.207Z,29.33
2022-08-11T12:09:07.845Z,29.16
2022-08-11T12:10:06.823Z,29.06
2022-08-11T12:11:06.850Z,29.04
2022-08-11T12:12:06.792Z,29.18
2022-08-11T12:13:06.831Z,29.22
2022-08-11T12:14:10.811Z,29.25
2022-08-11T12:15:06.755Z,29.15
2022-08-11T12:16:34.668Z,29.08
2022-08-11T12:17:07.793Z,29.13
2022-08-11T12:18:06.787Z,29.18
2022-08-11T12:19:06.691Z,29.22
2022-08-11T12:20:06.759Z,29.44
2022-08-11T12:21:07.758Z,29.44
2022-08-11T12:22:06.670Z,29.18
2022-08-11T12:23:06.686Z,29.18
2022-08-11T12:24:06.635Z,29.26
2022-08-11T12:25:06.646Z,29.35
2022-08-11T12:27:15.951Z,29.28
2022-08-11T12:28:07.636Z,29.10
2022-08-11T12:29:06.568Z,29.01
2022-08-11T12:30:06.553Z,29.06
2022-08-11T12:31:06.546Z,29.33
2022-08-11T12:32:06.575Z,29.34
2022-08-11T12:33:06.540Z,29.29
2022-08-11T12:34:06.579Z,29.44
2022-08-11T12:35:06.490Z,29.34
2022-08-11T12:36:06.525Z,29.31
2022-08-11T12:37:06.588Z,29.28
2022-08-11T12:38:10.803Z,29.22
2022-08-11T12:39:23.162Z,29.29
2022-08-11T12:40:16.498Z,29.28
2022-08-11T12:41:16.359Z,29.06
2022-08-11T12:42:07.418Z,29.10
2022-08-11T12:43:20.832Z,29.15
2022-08-11T12:44:07.358Z,29.08
2022-08-11T12:45:06.422Z,29.06
2022-08-11T12:46:07.370Z,29.04
2022-08-11T12:47:06.432Z,29.08
2022-08-11T12:48:40.216Z,29.16
2022-08-11T12:49:07.282Z,29.20
2022-08-11T12:50:06.290Z,29.25
2022-08-11T12:51:07.276Z,29.23
2022-08-11T12:52:14.855Z,29.29
2022-08-11T12:53:07.290Z,29.35
2022-08-11T12:54:06.411Z,29.26